createdAt,value
2022-09-20T00:00:45.902Z,102313.09
2022-09-20T00:02:47.498Z,102307.88
2022-09-20T00:04:49.816Z,102298.38
2022-09-20T00:06:51.535Z,102299.06
2022-09-20T00:09:04.477Z,102296.56
2022-09-20T00:11:10.201Z,102299.13
2022-09-20T00:13:13.738Z,102297.38
2022-09-20T00:15:15.424Z,102301.66
2022-09-20T00:17:17.029Z,102305.03
2022-09-20T00:19:21.755Z,102299.84
2022-09-20T00:21:29.026Z,102304.94
2022-09-20T00:23:31.462Z,102309.81
2022-09-20T00:25:33.492Z,102309.81
2022-09-20T00:27:35.098Z,102314.22
2022-09-20T00:29:36.808Z,102311.53
2022-09-20T00:31:40.441Z,102321.97
2022-09-20T00:34:00.679Z,102316.63
2022-09-20T00:36:02.541Z,102318.22
2022-09-20T00:38:04.160Z,102320.78
2022-09-20T00:40:08.841Z,102318.00
2022-09-20T00:42:14.980Z,102319.00
2022-09-20T00:44:53.824Z,102313.63
2022-09-20T00:46:55.570Z,102314.47
2022-09-20T00:49:22.424Z,102317.88
2022-09-20T00:51:29.870Z,102314.41
2022-09-20T00:53:36.903Z,102315.22
2022-09-20T00:55:43.339Z,102317.72
2022-09-20T00:57:46.027Z,102315.91
2022-09-20T00:59:51.105Z,102318.47
2022-09-20T01:02:00.458Z,102315.91
2022-09-20T01:04:03.711Z,102321.06
2022-09-20T01:06:10.472Z,102323.38
2022-09-20T01:08:13.018Z,102327.69
2022-09-20T01:10:14.662Z,102323.38
2022-09-20T01:12:20.665Z,102325.03
2022-09-20T01:14:24.484Z,102330.22
2022-09-20T01:16:28.073Z,102327.63
2022-09-20T01:18:32.086Z,102327.63
2022-09-20T01:20:37.088Z,102330.91
2022-09-20T01:22:51.397Z,102331.78
2022-09-20T01:25:20.510Z,102332.63
2022-09-20T01:27:49.173Z,102329.13
2022-09-20T01:30:08.166Z,102335.06
2022-09-20T01:32:14.415Z,102329.03
2022-09-20T01:34:29.799Z,102331.44
2022-09-20T01:36:39.802Z,102330.63
2022-09-20T01:39:19.153Z,102336.63
2022-09-20T01:41:29.157Z,102332.28
2022-09-20T01:43:36.408Z,102332.28
2022-09-20T01:45:45.302Z,102330.50
2022-09-20T01:48:05.767Z,102335.72
2022-09-20T01:50:07.330Z,102332.22
2022-09-20T01:52:14.740Z,102334.66
2022-09-20T01:54:36.675Z,102337.25
2022-09-20T01:57:15.597Z,102332.78
2022-09-20T01:59:55.079Z,102329.97
2022-09-20T02:02:18.507Z,102332.59
2022-09-20T02:04:35.399Z,102333.47
2022-09-20T02:06:54.016Z,102324.81
2022-09-20T02:09:25.242Z,102332.59
2022-09-20T02:11:52.413Z,102329.13
2022-09-20T02:14:06.409Z,102322.19
2022-09-20T02:16:20.279Z,102323.06
2022-09-20T02:19:03.418Z,102323.88
2022-09-20T02:21:20.154Z,102324.75
2022-09-20T02:23:40.344Z,102324.75
2022-09-20T02:25:52.958Z,102325.66
2022-09-20T02:28:03.511Z,102318.75
2022-09-20T02:30:13.731Z,102324.72
2022-09-20T02:32:18.346Z,102323.88
2022-09-20T02:34:46.374Z,102329.84
2022-09-20T02:37:08.151Z,102328.00
2022-09-20T02:39:15.885Z,102328.81
2022-09-20T02:41:24.799Z,102327.13
2022-09-20T02:44:05.201Z,102323.84
2022-09-20T02:46:15.814Z,102329.69
2022-09-20T02:48:24.328Z,102333.00
2022-09-20T02:50:31.630Z,102337.44
2022-09-20T02:52:49.504Z,102333.06
2022-09-20T02:55:00.115Z,102327.91
2022-09-20T02:57:04.586Z,102331.50
2022-09-20T02:59:26.454Z,102336.69
2022-09-20T03:02:00.009Z,102332.38
2022-09-20T03:04:34.917Z,102331.53
2022-09-20T03:07:04.172Z,102336.69
2022-09-20T03:09:31.275Z,102328.63
2022-09-20T03:11:49.177Z,102333.97
2022-09-20T03:14:09.946Z,102334.75
2022-09-20T03:16:43.662Z,102328.78
2022-09-20T03:19:00.584Z,102321.84
2022-09-20T03:21:22.785Z,102327.06
2022-09-20T03:24:12.500Z,102320.97
2022-09-20T03:26:49.336Z,102325.25
2022-09-20T03:29:03.739Z,102326.81
2022-09-20T03:31:11.701Z,102320.78
2022-09-20T03:33:26.637Z,102323.22
2022-09-20T03:35:49.755Z,102322.38
2022-09-20T03:38:31.127Z,102321.41
2022-09-20T03:40:47.842Z,102317.91
2022-09-20T03:42:52.632Z,102322.19
2022-09-20T03:45:24.368Z,102323.84
2022-09-20T03:47:54.420Z,102324.66
2022-09-20T03:50:17.141Z,102325.41
2022-09-20T03:52:39.485Z,102327.91
2022-09-20T03:54:42.677Z,102328.78
2022-09-20T03:56:53.282Z,102323.56
2022-09-20T03:59:17.912Z,102327.88
2022-09-20T04:01:34.880Z,102319.16
2022-09-20T04:03:53.962Z,102330.22
2022-09-20T04:06:29.528Z,102324.00
2022-09-20T04:08:49.939Z,102320.41
2022-09-20T04:11:13.228Z,102325.50
2022-09-20T04:13:26.671Z,102328.06
2022-09-20T04:15:58.231Z,102323.66
2022-09-20T04:18:24.571Z,102329.59
2022-09-20T04:20:38.689Z,102327.84
2022-09-20T04:22:42.395Z,102331.22
2022-09-20T04:24:53.775Z,102329.44
2022-09-20T04:27:20.242Z,102326.84
2022-09-20T04:29:35.115Z,102326.75
2022-09-20T04:31:45.501Z,102330.91
2022-09-20T04:33:52.264Z,102329.22
2022-09-20T04:36:30.846Z,102335.16
2022-09-20T04:38:33.874Z,102330.69
2022-09-20T04:40:56.974Z,102325.47
2022-09-20T04:43:36.107Z,102325.41
2022-09-20T04:46:12.301Z,102324.59
2022-09-20T04:48:39.144Z,102320.97
2022-09-20T04:51:10.932Z,102320.97
2022-09-20T04:53:44.951Z,102320.09
2022-09-20T04:55:49.815Z,102331.25
2022-09-20T04:57:53.993Z,102327.75
2022-09-20T05:00:08.766Z,102331.13
2022-09-20T05:02:28.869Z,102335.41
2022-09-20T05:04:47.335Z,102327.66
2022-09-20T05:07:10.415Z,102338.75
2022-09-20T05:09:39.227Z,102337.03
2022-09-20T05:11:47.049Z,102336.94
2022-09-20T05:14:42.518Z,102333.34
2022-09-20T05:17:04.501Z,102336.94
2022-09-20T05:19:17.085Z,102330.84
2022-09-20T05:21:44.506Z,102337.59
2022-09-20T05:24:17.177Z,102334.03
2022-09-20T05:26:40.298Z,102328.09
2022-09-20T05:28:41.944Z,102329.78
2022-09-20T05:30:50.715Z,102325.50
2022-09-20T05:33:10.625Z,102330.63
2022-09-20T05:35:57.227Z,102333.09
2022-09-20T05:38:24.158Z,102334.00
2022-09-20T05:40:53.597Z,102342.56
2022-09-20T05:42:58.625Z,102341.63
2022-09-20T05:45:46.321Z,102345.00
2022-09-20T05:47:59.653Z,102350.09
2022-09-20T05:50:29.794Z,102356.88
2022-09-20T05:52:51.709Z,102350.69
2022-09-20T05:55:11.225Z,102355.03
2022-09-20T05:57:44.871Z,102358.31
2022-09-20T06:00:02.002Z,102352.13
2022-09-20T06:02:40.381Z,102352.94
2022-09-20T06:04:56.668Z,102354.72
2022-09-20T06:07:20.056Z,102356.47
2022-09-20T06:10:09.590Z,102360.81
2022-09-20T06:12:29.075Z,102352.91
2022-09-20T06:14:51.970Z,102351.19
2022-09-20T06:16:59.727Z,102350.31
2022-09-20T06:19:20.222Z,102354.59
2022-09-20T06:21:21.854Z,102359.88
2022-09-20T06:23:24.595Z,102356.38
2022-09-20T06:25:32.449Z,102361.63
2022-09-20T06:27:55.095Z,102365.19
2022-09-20T06:30:02.038Z,102366.94
2022-09-20T06:32:03.788Z,102367.03
2022-09-20T06:34:13.451Z,102371.28
2022-09-20T06:36:45.427Z,102369.63
2022-09-20T06:39:30.530Z,102374.94
2022-09-20T06:41:34.848Z,102375.91
2022-09-20T06:43:37.166Z,102376.69
2022-09-20T06:45:38.817Z,102387.13
2022-09-20T06:47:40.547Z,102383.75
2022-09-20T06:49:42.861Z,102389.81
2022-09-20T06:51:44.540Z,102386.38
2022-09-20T06:53:46.339Z,102386.50
2022-09-20T06:55:57.575Z,102389.19
2022-09-20T06:57:59.338Z,102397.09
2022-09-20T07:00:01.361Z,102392.06
2022-09-20T07:02:03.113Z,102387.78
2022-09-20T07:04:06.333Z,102393.97
2022-09-20T07:06:09.543Z,102394.06
2022-09-20T07:08:12.607Z,102395.09
2022-09-20T07:10:15.537Z,102399.50
2022-09-20T07:12:17.211Z,102399.69
2022-09-20T07:14:19.266Z,102388.53
2022-09-20T07:16:21.379Z,102396.44
2022-09-20T07:18:23.156Z,102396.53
2022-09-20T07:20:24.890Z,102391.25
2022-09-20T07:22:27.796Z,102390.44
2022-09-20T07:24:43.430Z,102390.59
2022-09-20T07:26:59.536Z,102393.31
2022-09-20T07:29:02.256Z,102392.59
2022-09-20T07:31:03.958Z,102396.13
2022-09-20T07:33:05.550Z,102388.53
2022-09-20T07:35:09.280Z,102393.81
2022-09-20T07:37:12.165Z,102399.25
2022-09-20T07:39:13.833Z,102391.59
2022-09-20T07:41:15.545Z,102396.00
2022-09-20T07:43:17.167Z,102389.94
2022-09-20T07:45:18.899Z,102395.25
2022-09-20T07:47:21.465Z,102402.38
2022-09-20T07:49:23.425Z,102392.88
2022-09-20T07:51:25.752Z,102404.34
2022-09-20T07:53:27.393Z,102405.41
2022-09-20T07:55:29.083Z,102409.09
2022-09-20T07:57:35.080Z,102413.59
2022-09-20T07:59:36.791Z,102414.72
2022-09-20T08:01:38.986Z,102409.69
2022-09-20T08:03:40.772Z,102420.13
2022-09-20T08:05:43.464Z,102409.97
2022-09-20T08:07:45.182Z,102419.50
2022-09-20T08:09:47.078Z,102420.56
2022-09-20T08:11:49.813Z,102420.81
2022-09-20T08:14:09.460Z,102414.03
2022-09-20T08:16:15.819Z,102427.16
2022-09-20T08:18:17.883Z,102421.34
2022-09-20T08:20:19.673Z,102426.66
2022-09-20T08:22:23.545Z,102422.63
2022-09-20T08:24:27.010Z,102429.69
2022-09-20T08:26:29.661Z,102425.53
2022-09-20T08:30:36.188Z,102425.78
2022-09-20T08:32:42.143Z,102430.28
2022-09-20T08:34:49.096Z,102430.41
2022-09-20T08:36:52.824Z,102427.13
2022-09-20T08:43:38.972Z,102433.53
2022-09-20T08:45:42.932Z,102435.38
2022-09-20T08:47:54.182Z,102438.22
2022-09-20T08:50:08.839Z,102434.81
2022-09-20T08:52:19.445Z,102435.06
2022-09-20T08:54:24.363Z,102433.44
2022-09-20T09:00:41.320Z,102435.69
2022-09-20T09:02:43.941Z,102435.81
2022-09-20T09:06:52.868Z,102432.25
2022-09-20T09:08:58.771Z,102435.91
2022-09-20T09:11:08.759Z,102430.00
2022-09-20T09:13:24.591Z,102430.13
2022-09-20T09:15:30.247Z,102427.63
2022-09-20T09:19:45.161Z,102426.97
2022-09-20T09:21:47.064Z,102427.09
2022-09-20T09:23:53.184Z,102434.19
2022-09-20T09:25:56.330Z,102431.69
2022-09-20T09:28:03.509Z,102430.09
2022-09-20T09:30:21.262Z,102434.56
2022-09-20T09:32:28.703Z,102443.28
2022-09-20T09:36:45.087Z,102433.91
2022-09-20T09:39:16.981Z,102438.34
2022-09-20T09:41:30.085Z,102447.19
2022-09-20T09:43:35.904Z,102447.31
2022-09-20T09:45:39.648Z,102442.22
2022-09-20T09:47:41.653Z,102443.09
2022-09-20T09:50:03.669Z,102443.31
2022-09-20T09:52:26.187Z,102448.56
2022-09-20T09:54:50.427Z,102446.06
2022-09-20T09:57:11.962Z,102451.41
2022-09-20T09:59:26.492Z,102447.22
2022-09-20T10:02:14.280Z,102446.50
2022-09-20T10:04:40.080Z,102445.75
2022-09-20T10:06:59.030Z,102445.81
2022-09-20T10:09:10.284Z,102439.88
2022-09-20T10:11:30.559Z,102449.47
2022-09-20T10:13:33.478Z,102442.53
2022-09-20T10:15:53.336Z,102449.63
2022-09-20T10:18:17.324Z,102443.50
2022-09-20T10:20:31.305Z,102442.53
2022-09-20T10:22:42.152Z,102439.75
2022-09-20T10:24:55.229Z,102430.22
2022-09-20T10:27:17.136Z,102434.94
2022-09-20T10:29:38.270Z,102434.22
2022-09-20T10:31:58.082Z,102429.88
2022-09-20T10:34:06.258Z,102425.59
2022-09-20T10:36:29.313Z,102426.63
2022-09-20T10:38:37.370Z,102426.66
2022-09-20T10:41:31.248Z,102431.75
2022-09-20T10:43:43.863Z,102431.28
2022-09-20T10:46:31.336Z,102427.88
2022-09-20T10:48:41.080Z,102425.38
2022-09-20T10:50:43.659Z,102427.22
2022-09-20T10:52:49.524Z,102422.91
2022-09-20T10:54:58.698Z,102422.16
2022-09-20T10:57:37.690Z,102420.44
2022-09-20T10:59:48.593Z,102421.44
2022-09-20T11:02:11.892Z,102423.28
2022-09-20T11:04:50.552Z,102423.31
2022-09-20T11:07:19.706Z,102418.06
2022-09-20T11:09:25.931Z,102414.53
2022-09-20T11:11:34.834Z,102412.56
2022-09-20T11:13:50.077Z,102422.03
2022-09-20T11:16:17.830Z,102417.06
2022-09-20T11:18:32.100Z,102416.22
2022-09-20T11:20:44.300Z,102415.50
2022-09-20T11:23:14.029Z,102406.75
2022-09-20T11:25:44.682Z,102408.59
2022-09-20T11:27:55.674Z,102405.22
2022-09-20T11:30:04.562Z,102411.38
2022-09-20T11:32:17.131Z,102412.34
2022-09-20T11:34:38.265Z,102406.41
2022-09-20T11:36:52.320Z,102410.78
2022-09-20T11:39:36.224Z,102405.66
2022-09-20T11:41:38.111Z,102408.38
2022-09-20T11:43:46.058Z,102404.91
2022-09-20T11:45:53.140Z,102405.88
2022-09-20T11:48:02.879Z,102413.69
2022-09-20T11:50:29.302Z,102404.19
2022-09-20T11:52:39.786Z,102405.94
2022-09-20T11:54:57.518Z,102404.28
2022-09-20T11:57:00.199Z,102401.72
2022-09-20T11:59:03.950Z,102404.34
2022-09-20T12:01:14.111Z,102406.06
2022-09-20T12:03:40.226Z,102403.41
2022-09-20T12:05:42.399Z,102403.38
2022-09-20T12:07:44.480Z,102404.19
2022-09-20T12:09:58.264Z,102398.97
2022-09-20T12:12:14.672Z,102404.25
2022-09-20T12:14:24.758Z,102399.91
2022-09-20T12:16:42.024Z,102401.56
2022-09-20T12:19:01.993Z,102393.66
2022-09-20T12:21:16.615Z,102391.03
2022-09-20T12:23:43.410Z,102397.22
2022-09-20T12:26:02.440Z,102396.31
2022-09-20T12:28:05.398Z,102391.97
2022-09-20T12:30:18.184Z,102397.13
2022-09-20T12:32:52.069Z,102396.28
2022-09-20T12:34:53.734Z,102396.31
2022-09-20T12:36:55.305Z,102397.22
2022-09-20T12:39:06.618Z,102387.69
2022-09-20T12:41:10.311Z,102395.63
2022-09-20T12:43:20.585Z,102394.88
2022-09-20T12:45:23.271Z,102399.28
2022-09-20T12:47:28.996Z,102398.50
2022-09-20T12:50:04.353Z,102387.19
2022-09-20T12:52:39.143Z,102389.84
2022-09-20T12:54:56.307Z,102394.28
2022-09-20T12:57:18.011Z,102387.25
2022-09-20T12:59:29.092Z,102378.53
2022-09-20T13:01:34.003Z,102380.34
2022-09-20T13:03:37.974Z,102385.56
2022-09-20T13:05:42.442Z,102382.97
2022-09-20T13:07:52.548Z,102379.47
2022-09-20T13:09:54.953Z,102378.66
2022-09-20T13:12:01.525Z,102382.09
2022-09-20T13:14:07.024Z,102388.19
2022-09-20T13:16:22.530Z,102383.81
2022-09-20T13:18:26.470Z,102389.03
2022-09-20T13:20:31.545Z,102381.16
2022-09-20T13:22:43.673Z,102377.63
2022-09-20T13:24:52.228Z,102377.59
2022-09-20T13:27:00.127Z,102376.69
2022-09-20T13:29:04.755Z,102376.69
2022-09-20T13:31:22.056Z,102373.97
2022-09-20T13:33:25.191Z,102373.06
2022-09-20T13:35:32.530Z,102375.69
2022-09-20T13:37:35.734Z,102377.41
2022-09-20T13:39:37.726Z,102372.13
2022-09-20T13:41:39.468Z,102379.09
2022-09-20T13:43:43.737Z,102373.81
2022-09-20T13:46:04.263Z,102378.13
2022-09-20T13:48:09.462Z,102372.00
2022-09-20T13:50:24.328Z,102379.84
2022-09-20T13:52:28.282Z,102381.53
2022-09-20T13:54:42.428Z,102372.81
2022-09-20T13:56:44.284Z,102372.72
2022-09-20T13:58:46.340Z,102373.56
2022-09-20T14:01:20.829Z,102380.56
2022-09-20T14:03:24.140Z,102365.78
2022-09-20T14:05:29.208Z,102368.44
2022-09-20T14:07:32.004Z,102374.63
2022-09-20T14:09:39.495Z,102372.94
2022-09-20T14:11:41.287Z,102363.34
2022-09-20T14:13:52.327Z,102364.22
2022-09-20T14:15:53.979Z,102359.06
2022-09-20T14:17:56.588Z,102358.16
2022-09-20T14:19:58.458Z,102359.09
2022-09-20T14:22:05.267Z,102354.78
2022-09-20T14:24:28.809Z,102353.97
2022-09-20T14:26:39.804Z,102354.00
2022-09-20T14:28:42.532Z,102353.97
2022-09-20T14:30:46.107Z,102349.63
2022-09-20T14:32:54.536Z,102352.25
2022-09-20T14:34:56.114Z,102345.28
2022-09-20T14:37:13.810Z,102347.06
2022-09-20T14:39:19.037Z,102348.78
2022-09-20T14:41:41.211Z,102349.66
2022-09-20T14:43:43.037Z,102340.94
2022-09-20T14:45:53.858Z,102340.06
2022-09-20T14:48:10.403Z,102343.56
2022-09-20T14:50:26.986Z,102340.06
2022-09-20T14:52:35.420Z,102343.56
2022-09-20T14:54:42.989Z,102334.84
2022-09-20T14:56:49.425Z,102342.69
2022-09-20T14:59:19.358Z,102339.19
2022-09-20T15:01:25.945Z,102343.56
2022-09-20T15:03:34.035Z,102338.31
2022-09-20T15:05:36.151Z,102337.47
2022-09-20T15:07:37.877Z,102338.31
2022-09-20T15:09:39.817Z,102340.06
2022-09-20T15:11:41.585Z,102331.34
2022-09-20T15:13:44.119Z,102333.97
2022-09-20T15:15:52.842Z,102337.41
2022-09-20T15:17:54.877Z,102340.06
2022-09-20T15:19:59.313Z,102331.34
2022-09-20T15:22:01.159Z,102336.63
2022-09-20T15:24:02.802Z,102330.50
2022-09-20T15:26:05.025Z,102334.00
2022-09-20T15:28:07.854Z,102329.63
2022-09-20T15:30:11.701Z,102325.25
2022-09-20T15:32:13.440Z,102316.50
2022-09-20T15:34:16.262Z,102321.75
2022-09-20T15:36:17.904Z,102322.59
2022-09-20T15:38:20.091Z,102319.03
2022-09-20T15:40:22.078Z,102311.19
2022-09-20T15:42:23.941Z,102319.00
2022-09-20T15:44:25.607Z,102317.19
2022-09-20T15:46:27.593Z,102317.16
2022-09-20T15:48:30.801Z,102318.88
2022-09-20T15:50:32.417Z,102320.59
2022-09-20T15:52:41.636Z,102329.28
2022-09-20T15:54:43.493Z,102325.75
2022-09-20T15:56:45.441Z,102326.63
2022-09-20T15:58:50.348Z,102328.31
2022-09-20T16:00:52.181Z,102329.22
2022-09-20T16:02:53.919Z,102325.69
2022-09-20T16:04:55.968Z,102321.31
2022-09-20T16:06:57.632Z,102326.53
2022-09-20T16:08:59.299Z,102319.53
2022-09-20T16:11:02.417Z,102332.59
2022-09-20T16:13:04.133Z,102323.00
2022-09-20T16:15:06.396Z,102320.41
2022-09-20T16:17:08.370Z,102330.91
2022-09-20T16:19:23.928Z,102317.78
2022-09-20T16:21:25.763Z,102328.28
2022-09-20T16:23:27.516Z,102325.66
2022-09-20T16:25:29.166Z,102327.38
2022-09-20T16:27:34.735Z,102323.00
2022-09-20T16:29:36.406Z,102324.75
2022-09-20T16:31:42.496Z,102331.63
2022-09-20T16:33:44.261Z,102333.34
2022-09-20T16:35:45.923Z,102328.94
2022-09-20T16:37:48.565Z,102331.53
2022-09-20T16:39:50.145Z,102328.06
2022-09-20T16:41:53.017Z,102328.91
2022-09-20T16:43:55.357Z,102334.06
2022-09-20T16:46:00.766Z,102332.38
2022-09-20T16:48:08.458Z,102332.38
2022-09-20T16:50:12.004Z,102335.88
2022-09-20T16:52:14.407Z,102333.25
2022-09-20T16:54:17.229Z,102335.00
2022-09-20T16:56:28.180Z,102332.31
2022-09-20T16:58:30.648Z,102336.69
2022-09-20T17:00:33.803Z,102345.38
2022-09-20T17:02:36.199Z,102341.00
2022-09-20T17:04:37.902Z,102338.41
2022-09-20T17:06:40.392Z,102337.53
2022-09-20T17:08:44.807Z,102339.28
2022-09-20T17:10:47.134Z,102343.63
2022-09-20T17:12:52.458Z,102341.00
2022-09-20T17:14:54.161Z,102343.63
2022-09-20T17:16:56.747Z,102341.88
2022-09-20T17:19:04.379Z,102347.09
2022-09-20T17:21:06.993Z,102341.81
2022-09-20T17:23:09.285Z,102338.34
2022-09-20T17:25:10.950Z,102330.50
2022-09-20T17:27:12.923Z,102333.09
2022-09-20T17:29:17.022Z,102346.13
2022-09-20T17:31:21.222Z,102336.56
2022-09-20T17:33:23.069Z,102340.91
2022-09-20T17:35:24.675Z,102339.16
2022-09-20T17:37:26.335Z,102341.69
2022-09-20T17:39:27.960Z,102342.56
2022-09-20T17:41:30.314Z,102350.41
2022-09-20T17:43:31.971Z,102352.16
2022-09-20T17:45:33.653Z,102354.75
2022-09-20T17:47:35.246Z,102353.88
2022-09-20T17:49:38.506Z,102352.13
2022-09-20T17:51:42.815Z,102357.31
2022-09-20T17:53:45.519Z,102359.91
2022-09-20T17:55:54.677Z,102356.41
2022-09-20T17:57:56.282Z,102352.03
2022-09-20T17:59:59.196Z,102356.38
2022-09-20T18:02:08.950Z,102354.56
2022-09-20T18:04:11.666Z,102358.91
2022-09-20T18:06:16.750Z,102361.50
2022-09-20T18:08:19.563Z,102358.81
2022-09-20T18:10:21.308Z,102359.75
2022-09-20T18:12:22.916Z,102353.59
2022-09-20T18:14:39.275Z,102362.28
2022-09-20T18:16:41.196Z,102363.13
2022-09-20T18:18:43.919Z,102360.50
2022-09-20T18:20:45.937Z,102359.63
2022-09-20T18:22:50.769Z,102356.06
2022-09-20T18:24:52.624Z,102356.91
2022-09-20T18:26:54.861Z,102363.00
2022-09-20T18:29:08.081Z,102366.44
2022-09-20T18:31:10.346Z,102364.66
2022-09-20T18:33:15.749Z,102367.31
2022-09-20T18:35:17.506Z,102362.91
2022-09-20T18:37:19.761Z,102369.88
2022-09-20T18:39:30.377Z,102368.97
2022-09-20T18:41:34.278Z,102368.94
2022-09-20T18:43:40.896Z,102368.06
2022-09-20T18:45:52.309Z,102368.06
2022-09-20T18:47:57.330Z,102368.00
2022-09-20T18:49:59.301Z,102365.38
2022-09-20T18:52:01.515Z,102373.19
2022-09-20T18:54:04.257Z,102374.91
2022-09-20T18:56:19.404Z,102380.13
2022-09-20T18:58:23.038Z,102379.22
2022-09-20T19:00:25.007Z,102389.63
2022-09-20T19:02:57.012Z,102390.47
2022-09-20T19:05:12.064Z,102386.09
2022-09-20T19:07:28.911Z,102392.16
2022-09-20T19:09:37.748Z,102392.09
2022-09-20T19:11:47.175Z,102389.47
2022-09-20T19:14:03.197Z,102392.06
2022-09-20T19:16:30.697Z,102395.47
2022-09-20T19:18:35.802Z,102391.91
2022-09-20T19:21:09.570Z,102394.50
2022-09-20T19:23:41.880Z,102397.09
2022-09-20T19:25:47.926Z,102400.56
2022-09-20T19:27:50.392Z,102403.97
2022-09-20T19:29:55.151Z,102402.22
2022-09-20T19:32:01.064Z,102406.53
2022-09-20T19:34:10.426Z,102405.66
2022-09-20T19:36:13.113Z,102407.41
2022-09-20T19:38:29.534Z,102406.53
2022-09-20T19:40:49.001Z,102412.59
2022-09-20T19:43:18.177Z,102409.97
2022-09-20T19:45:29.354Z,102417.78
2022-09-20T19:47:38.165Z,102418.63
2022-09-20T19:50:02.852Z,102417.72
2022-09-20T19:52:06.602Z,102422.06
2022-09-20T19:54:14.027Z,102422.94
2022-09-20T19:56:18.794Z,102422.06
2022-09-20T19:58:21.338Z,102417.72
2022-09-20T20:00:23.708Z,102422.06
2022-09-20T20:02:34.189Z,102420.31
2022-09-20T20:04:38.364Z,102417.69
2022-09-20T20:07:01.298Z,102421.16
2022-09-20T20:11:36.527Z,102422.91
2022-09-20T20:14:08.345Z,102422.88
2022-09-20T20:16:17.992Z,102427.22
2022-09-20T20:18:24.785Z,102423.72
2022-09-20T20:20:38.165Z,102430.69
2022-09-20T20:23:02.132Z,102431.56
2022-09-20T20:25:05.575Z,102435.06
2022-09-20T20:27:11.850Z,102428.09
2022-09-20T20:29:14.145Z,102434.19
2022-09-20T20:31:16.580Z,102434.19
2022-09-20T20:33:19.547Z,102434.16
2022-09-20T20:35:23.146Z,102433.31
2022-09-20T20:37:28.251Z,102429.88
2022-09-20T20:39:32.370Z,102429.88
2022-09-20T20:41:34.175Z,102430.75
2022-09-20T20:43:38.976Z,102435.16
2022-09-20T20:45:49.914Z,102434.28
2022-09-20T20:47:56.971Z,102435.09
2022-09-20T20:49:58.851Z,102434.28
2022-09-20T20:52:04.874Z,102440.34
2022-09-20T20:54:07.110Z,102436.88
2022-09-20T20:56:12.265Z,102442.09
2022-09-20T20:58:14.060Z,102437.69
2022-09-20T21:02:18.454Z,102445.50
2022-09-20T21:04:21.832Z,102443.75
2022-09-20T21:06:26.503Z,102443.72
2022-09-20T21:08:39.111Z,102438.50
2022-09-20T21:10:40.911Z,102439.38
2022-09-20T21:12:42.677Z,102435.91
2022-09-20T21:14:44.790Z,102435.91
2022-09-20T21:16:46.561Z,102438.50
2022-09-20T21:18:49.899Z,102437.63
2022-09-20T21:20:51.684Z,102435.88
2022-09-20T21:22:53.489Z,102446.34
2022-09-20T21:24:56.087Z,102447.19
2022-09-20T21:26:57.850Z,102439.38
2022-09-20T21:29:01.564Z,102443.72
2022-09-20T21:31:05.362Z,102443.72
2022-09-20T21:35:09.291Z,102442.88
2022-09-20T21:37:11.019Z,102442.00
2022-09-20T21:39:13.099Z,102442.88
2022-09-20T21:41:17.859Z,102441.16
2022-09-20T21:43:19.609Z,102440.28
2022-09-20T21:45:25.659Z,102441.16
2022-09-20T21:47:27.399Z,102429.84
2022-09-20T21:49:29.170Z,102433.31
2022-09-20T21:51:31.779Z,102442.00
2022-09-20T21:53:35.303Z,102433.31
2022-09-20T21:57:38.784Z,102442.91
2022-09-20T21:59:40.641Z,102432.47
2022-09-20T22:01:42.376Z,102441.16
2022-09-20T22:03:45.348Z,102432.44
2022-09-20T22:05:48.121Z,102436.78
2022-09-20T22:09:52.249Z,102444.53
2022-09-20T22:11:54.480Z,102443.63
2022-09-20T22:13:56.982Z,102438.38
2022-09-20T22:16:10.608Z,102440.03
2022-09-20T22:18:12.295Z,102447.00
2022-09-20T22:22:14.840Z,102444.38
2022-09-20T22:24:17.420Z,102448.72
2022-09-20T22:26:21.321Z,102447.00
2022-09-20T22:28:23.350Z,102447.84
2022-09-20T22:30:25.221Z,102448.69
2022-09-20T22:32:26.904Z,102444.34
2022-09-20T22:34:28.735Z,102442.59
2022-09-20T22:38:36.239Z,102443.41
2022-09-20T22:40:38.028Z,102444.22
2022-09-20T22:42:40.059Z,102450.28
2022-09-20T22:44:41.780Z,102455.50
2022-09-20T22:46:43.571Z,102449.41
2022-09-20T22:48:45.835Z,102447.66
2022-09-20T22:50:47.534Z,102448.53
2022-09-20T22:54:51.552Z,102449.38
2022-09-20T22:56:53.484Z,102447.59
2022-09-20T22:59:00.080Z,102448.44
2022-09-20T23:01:05.370Z,102450.13
2022-09-20T23:05:08.962Z,102453.56
2022-09-20T23:07:11.690Z,102455.31
2022-09-20T23:09:15.849Z,102455.31
2022-09-20T23:11:18.917Z,102450.97
2022-09-20T23:13:20.649Z,102450.09
2022-09-20T23:15:22.961Z,102449.25
2022-09-20T23:17:24.875Z,102443.16
2022-09-20T23:19:27.132Z,102446.63
2022-09-20T23:21:30.014Z,102448.25
2022-09-20T23:23:32.354Z,102450.00
2022-09-20T23:25:34.626Z,102444.81
2022-09-20T23:27:36.799Z,102449.19
2022-09-20T23:29:39.138Z,102448.25
2022-09-20T23:31:46.105Z,102455.19
2022-09-20T23:34:00.144Z,102449.06
2022-09-20T23:36:06.027Z,102449.06
2022-09-20T23:42:12.268Z,102447.16
2022-09-20T23:46:16.682Z,102449.81
2022-09-20T23:48:18.746Z,102448.94
2022-09-20T23:50:21.256Z,102449.78
2022-09-20T23:54:24.986Z,102450.66
2022-09-20T23:56:27.654Z,102448.94
2022-09-20T23:58:29.865Z,102448.94
